createdAt,value
2018-11-10T00:00:05.286Z,99.90
2018-11-10T00:04:37.052Z,99.90
2018-11-10T00:06:46.132Z,99.90
2018-11-10T00:09:00.335Z,99.90
2018-11-10T00:11:13.849Z,99.90
2018-11-10T00:13:30.286Z,99.90
2018-11-10T00:15:40.226Z,99.90
2018-11-10T00:17:52.247Z,99.90
2018-11-10T00:20:05.304Z,99.90
2018-11-10T00:22:16.767Z,99.90
2018-11-10T00:24:32.753Z,99.90
2018-11-10T00:26:41.641Z,99.90
2018-11-10T00:28:53.788Z,99.90
2018-11-10T00:31:10.421Z,99.90
2018-11-10T00:33:22.464Z,99.90
2018-11-10T00:35:33.848Z,99.90
2018-11-10T00:37:43.974Z,99.90
2018-11-10T00:39:52.277Z,99.90
2018-11-10T00:42:01.966Z,99.90
2018-11-10T00:44:14.810Z,99.90
2018-11-10T00:46:29.181Z,99.90
2018-11-10T00:48:43.881Z,99.90
2018-11-10T00:50:55.517Z,99.90
2018-11-10T00:53:08.866Z,99.90
2018-11-10T00:55:17.377Z,99.90
2018-11-10T00:57:27.971Z,99.90
2018-11-10T00:59:42.605Z,99.90
2018-11-10T01:01:56.630Z,99.90
2018-11-10T01:04:08.078Z,99.90
2018-11-10T01:06:16.998Z,99.90
2018-11-10T01:08:24.732Z,99.90
2018-11-10T01:10:34.500Z,99.90
2018-11-10T01:12:45.920Z,99.90
2018-11-10T01:14:55.505Z,99.90
2018-11-10T01:17:05.457Z,99.90
2018-11-10T01:19:16.442Z,99.90
2018-11-10T01:21:29.275Z,99.90
2018-11-10T01:23:39.323Z,99.90
2018-11-10T01:25:50.308Z,99.90
2018-11-10T01:28:04.177Z,99.90
2018-11-10T01:30:25.450Z,99.90
2018-11-10T01:32:35.427Z,99.90
2018-11-10T01:34:44.342Z,99.90
2018-11-10T01:37:05.103Z,99.90
2018-11-10T01:39:17.091Z,99.90
2018-11-10T01:41:41.400Z,99.90
2018-11-10T01:43:54.596Z,99.90
2018-11-10T01:46:05.468Z,99.90
2018-11-10T01:48:16.331Z,99.90
2018-11-10T01:50:27.074Z,99.90
2018-11-10T01:52:41.246Z,99.90
2018-11-10T01:54:54.959Z,99.90
2018-11-10T01:57:11.008Z,99.90
2018-11-10T01:59:26.970Z,99.90
2018-11-10T02:01:35.561Z,99.90
2018-11-10T02:03:47.658Z,99.90
2018-11-10T02:05:58.391Z,99.90
2018-11-10T02:08:16.561Z,99.90
2018-11-10T02:10:27.731Z,99.90
2018-11-10T02:12:39.014Z,99.90
2018-11-10T02:14:51.872Z,99.90
2018-11-10T02:17:09.187Z,99.90
2018-11-10T02:19:17.854Z,99.90
2018-11-10T02:21:28.524Z,99.90
2018-11-10T02:23:43.810Z,99.90
2018-11-10T02:26:05.098Z,99.90
2018-11-10T02:28:20.483Z,99.90
2018-11-10T02:33:03.901Z,99.90
2018-11-10T02:35:16.278Z,99.90
2018-11-10T02:37:25.984Z,99.90
2018-11-10T02:39:40.366Z,99.90
2018-11-10T02:41:55.456Z,99.90
2018-11-10T02:44:08.247Z,99.90
2018-11-10T02:46:19.892Z,99.90
2018-11-10T02:48:31.683Z,99.90
2018-11-10T02:50:39.725Z,99.90
2018-11-10T02:52:47.775Z,99.90
2018-11-10T02:54:55.459Z,99.90
2018-11-10T02:57:05.019Z,99.90
2018-11-10T02:59:25.045Z,99.90
2018-11-10T03:01:37.427Z,99.90
2018-11-10T03:03:45.844Z,99.90
2018-11-10T03:05:53.123Z,99.90
2018-11-10T03:08:08.721Z,99.90
2018-11-10T03:10:22.136Z,99.90
2018-11-10T03:12:35.304Z,99.90
2018-11-10T03:14:45.903Z,99.90
2018-11-10T03:16:55.660Z,99.90
2018-11-10T03:19:04.140Z,99.90
2018-11-10T03:21:21.378Z,99.90
2018-11-10T03:23:30.225Z,99.90
2018-11-10T03:25:37.428Z,99.70
2018-11-10T03:27:49.211Z,99.90
2018-11-10T03:29:59.200Z,99.80
2018-11-10T03:32:13.407Z,99.40
2018-11-10T03:34:23.363Z,99.50
2018-11-10T03:36:34.590Z,99.90
2018-11-10T03:38:45.025Z,99.70
2018-11-10T03:40:55.011Z,99.70
2018-11-10T03:43:07.569Z,99.70
2018-11-10T03:45:28.195Z,99.80
2018-11-10T03:47:37.548Z,99.80
2018-11-10T03:49:51.749Z,99.90
2018-11-10T03:52:01.062Z,99.90
2018-11-10T03:54:10.821Z,99.70
2018-11-10T03:56:26.988Z,99.70
2018-11-10T03:58:34.035Z,99.50
2018-11-10T04:00:45.066Z,99.00
2018-11-10T04:02:54.299Z,99.10
2018-11-10T04:05:02.525Z,99.30
2018-11-10T04:07:16.561Z,99.30
2018-11-10T04:09:28.099Z,99.10
2018-11-10T04:11:39.047Z,98.90
2018-11-10T04:13:56.751Z,99.10
2018-11-10T04:16:13.820Z,99.30
2018-11-10T04:18:21.657Z,99.20
2018-11-10T04:20:33.275Z,98.90
2018-11-10T04:22:41.590Z,99.30
2018-11-10T04:24:49.996Z,99.20
2018-11-10T04:27:06.616Z,99.30
2018-11-10T04:29:23.549Z,99.20
2018-11-10T04:31:38.666Z,99.40
2018-11-10T04:36:06.374Z,98.60
2018-11-10T04:38:16.836Z,98.30
2018-11-10T04:40:28.204Z,97.90
2018-11-10T04:42:36.067Z,97.80
2018-11-10T04:44:44.312Z,97.80
2018-11-10T04:46:56.915Z,97.50
2018-11-10T04:49:06.620Z,98.00
2018-11-10T04:51:20.333Z,97.80
2018-11-10T04:53:29.908Z,97.60
2018-11-10T04:55:40.702Z,97.50
2018-11-10T04:57:55.295Z,97.20
2018-11-10T05:00:06.179Z,97.20
2018-11-10T05:02:16.687Z,98.00
2018-11-10T05:04:33.271Z,98.40
2018-11-10T05:06:46.367Z,98.60
2018-11-10T05:08:56.607Z,98.60
2018-11-10T05:11:03.447Z,98.30
2018-11-10T05:15:28.286Z,97.80
2018-11-10T05:17:37.609Z,97.80
2018-11-10T05:19:50.852Z,97.50
2018-11-10T05:22:02.449Z,97.60
2018-11-10T05:24:18.570Z,97.70
2018-11-10T05:26:26.999Z,97.50
2018-11-10T05:28:34.146Z,97.70
2018-11-10T05:30:45.447Z,97.70
2018-11-10T05:32:56.148Z,97.70
2018-11-10T05:35:08.724Z,97.50
2018-11-10T05:37:19.731Z,97.70
2018-11-10T05:39:36.239Z,98.10
2018-11-10T05:41:47.475Z,98.00
2018-11-10T05:43:54.857Z,97.90
2018-11-10T05:46:05.084Z,97.40
2018-11-10T05:48:13.187Z,97.40
2018-11-10T05:50:24.524Z,97.40
2018-11-10T05:52:38.442Z,97.40
2018-11-10T05:54:43.584Z,97.10
2018-11-10T05:56:54.251Z,97.10
2018-11-10T05:59:07.043Z,96.80
2018-11-10T06:01:15.884Z,96.60
2018-11-10T06:03:27.527Z,96.80
2018-11-10T06:05:41.706Z,97.00
2018-11-10T06:07:50.193Z,97.30
2018-11-10T06:09:59.332Z,97.20
2018-11-10T06:12:06.643Z,97.30
2018-11-10T06:14:20.007Z,97.90
2018-11-10T06:16:27.792Z,98.30
2018-11-10T06:18:39.365Z,98.70
2018-11-10T06:20:50.456Z,98.70
2018-11-10T06:22:59.083Z,98.80
2018-11-10T06:25:14.888Z,99.30
2018-11-10T06:27:26.175Z,99.50
2018-11-10T06:29:39.504Z,99.50
2018-11-10T06:31:50.272Z,99.70
2018-11-10T06:33:57.660Z,99.90
2018-11-10T06:36:14.666Z,99.90
2018-11-10T06:38:25.969Z,99.90
2018-11-10T06:40:36.400Z,99.90
2018-11-10T06:42:52.139Z,99.90
2018-11-10T06:45:01.721Z,99.90
2018-11-10T06:47:15.456Z,99.90
2018-11-10T06:50:02.307Z,99.90
2018-11-10T06:52:18.676Z,99.90
2018-11-10T06:54:34.868Z,99.90
2018-11-10T06:56:43.141Z,99.90
2018-11-10T06:58:54.478Z,99.90
2018-11-10T07:01:03.507Z,99.90
2018-11-10T07:03:16.411Z,99.90
2018-11-10T07:05:32.211Z,99.90
2018-11-10T07:07:41.529Z,99.90
2018-11-10T07:09:53.427Z,99.90
2018-11-10T07:12:05.859Z,99.90
2018-11-10T07:14:16.255Z,99.90
2018-11-10T07:16:34.968Z,99.90
2018-11-10T07:18:44.392Z,99.90
2018-11-10T07:20:57.691Z,99.90
2018-11-10T07:23:12.802Z,99.90
2018-11-10T07:25:23.695Z,99.90
2018-11-10T07:27:30.284Z,99.90
2018-11-10T07:29:42.058Z,99.90
2018-11-10T07:31:50.934Z,99.90
2018-11-10T07:34:03.743Z,99.90
2018-11-10T07:36:14.989Z,99.90
2018-11-10T07:38:25.156Z,99.90
2018-11-10T07:40:35.145Z,99.90
2018-11-10T07:42:45.073Z,99.90
2018-11-10T07:44:55.029Z,99.90
2018-11-10T07:47:20.564Z,99.90
2018-11-10T07:49:29.841Z,99.90
2018-11-10T07:51:37.512Z,99.90
2018-11-10T07:53:47.729Z,99.90
2018-11-10T07:56:05.162Z,99.90
2018-11-10T07:58:14.403Z,99.90
2018-11-10T08:00:24.335Z,99.90
2018-11-10T08:02:34.143Z,99.90
2018-11-10T08:04:45.508Z,99.90
2018-11-10T08:06:53.668Z,99.90
2018-11-10T08:09:06.557Z,99.90
2018-11-10T08:13:38.312Z,99.90
2018-11-10T08:15:59.557Z,99.90
2018-11-10T08:18:11.327Z,99.90
2018-11-10T08:20:23.258Z,99.90
2018-11-10T08:22:43.180Z,99.90
2018-11-10T08:24:52.830Z,99.70
2018-11-10T08:27:06.570Z,99.40
2018-11-10T08:29:17.466Z,99.60
2018-11-10T08:33:43.209Z,99.00
2018-11-10T08:35:58.448Z,99.40
2018-11-10T08:38:08.714Z,99.60
2018-11-10T08:40:22.659Z,99.60
2018-11-10T08:42:37.188Z,99.30
2018-11-10T08:44:50.122Z,99.60
2018-11-10T08:49:14.149Z,99.90
2018-11-10T08:51:27.311Z,99.90
2018-11-10T08:53:58.445Z,99.60
2018-11-10T08:56:11.186Z,99.40
2018-11-10T08:58:33.326Z,99.40
2018-11-10T09:00:48.485Z,99.10
2018-11-10T09:03:01.252Z,99.30
2018-11-10T09:05:16.623Z,99.00
2018-11-10T09:07:27.090Z,99.40
2018-11-10T09:09:35.282Z,99.30
2018-11-10T09:11:43.078Z,98.90
2018-11-10T09:13:58.644Z,99.10
2018-11-10T09:16:08.262Z,98.90
2018-11-10T09:18:17.583Z,98.30
2018-11-10T09:20:24.721Z,98.10
2018-11-10T09:22:37.332Z,98.40
2018-11-10T09:24:47.276Z,98.50
2018-11-10T09:26:54.685Z,98.40
2018-11-10T09:29:04.655Z,98.30
2018-11-10T09:31:17.815Z,98.20
2018-11-10T09:33:28.220Z,98.10
2018-11-10T09:35:42.558Z,98.30
2018-11-10T09:37:49.959Z,98.00
2018-11-10T09:39:59.589Z,98.10
2018-11-10T09:42:13.590Z,98.10
2018-11-10T09:44:23.138Z,97.70
2018-11-10T09:48:53.103Z,97.20
2018-11-10T09:51:02.365Z,97.50
2018-11-10T09:53:31.744Z,97.40
2018-11-10T09:55:42.662Z,96.70
2018-11-10T09:57:51.936Z,97.00
2018-11-10T10:00:07.905Z,97.50
2018-11-10T10:02:18.409Z,97.10
2018-11-10T10:04:30.010Z,96.80
2018-11-10T10:06:38.742Z,96.60
2018-11-10T10:08:53.341Z,96.60
2018-11-10T10:11:09.662Z,96.70
2018-11-10T10:13:16.204Z,96.30
2018-11-10T10:15:25.701Z,96.30
2018-11-10T10:17:36.165Z,96.50
2018-11-10T10:19:50.707Z,96.40
2018-11-10T10:22:03.306Z,96.10
2018-11-10T10:24:16.837Z,95.40
2018-11-10T10:26:38.231Z,94.90
2018-11-10T10:28:49.627Z,94.20
2018-11-10T10:30:56.451Z,93.90
2018-11-10T10:33:11.843Z,93.70
2018-11-10T10:35:25.507Z,93.40
2018-11-10T10:37:36.712Z,93.40
2018-11-10T10:39:48.379Z,93.70
2018-11-10T10:41:58.412Z,93.60
2018-11-10T10:44:12.333Z,93.10
2018-11-10T10:46:23.486Z,93.70
2018-11-10T10:50:37.992Z,93.90
2018-11-10T10:52:44.469Z,94.10
2018-11-10T10:54:49.904Z,93.50
2018-11-10T10:56:59.488Z,92.90
2018-11-10T10:59:15.226Z,93.00
2018-11-10T11:01:27.777Z,93.20
2018-11-10T11:03:37.069Z,92.90
2018-11-10T11:05:48.143Z,92.70
2018-11-10T11:07:54.911Z,92.60
2018-11-10T11:10:00.532Z,92.50
2018-11-10T11:12:08.256Z,92.80
2018-11-10T11:14:12.792Z,92.50
2018-11-10T11:16:18.150Z,92.10
2018-11-10T11:18:22.853Z,92.30
2018-11-10T11:20:28.872Z,92.10
2018-11-10T11:22:34.727Z,91.90
2018-11-10T11:24:39.121Z,91.10
2018-11-10T11:26:44.624Z,90.80
2018-11-10T11:28:52.454Z,90.80
2018-11-10T11:30:59.451Z,90.50
2018-11-10T11:33:06.550Z,90.50
2018-11-10T11:35:15.176Z,90.50
2018-11-10T11:37:20.165Z,90.40
2018-11-10T11:39:26.456Z,90.60
2018-11-10T11:41:34.362Z,90.10
2018-11-10T11:43:44.192Z,90.10
2018-11-10T11:45:50.231Z,90.60
2018-11-10T11:47:54.428Z,90.60
2018-11-10T11:49:58.653Z,90.90
2018-11-10T11:52:06.584Z,90.90
2018-11-10T11:54:12.994Z,90.10
2018-11-10T11:56:21.985Z,90.50
2018-11-10T11:58:27.105Z,90.20
2018-11-10T12:00:32.307Z,90.20
2018-11-10T12:02:38.692Z,90.20
2018-11-10T12:04:45.316Z,90.00
2018-11-10T12:06:50.229Z,89.60
2018-11-10T12:08:55.939Z,89.30
2018-11-10T12:11:03.810Z,88.60
2018-11-10T12:13:08.509Z,88.40
2018-11-10T12:15:24.285Z,88.50
2018-11-10T12:17:28.452Z,87.60
2018-11-10T12:19:34.297Z,87.70
2018-11-10T12:21:42.460Z,87.70
2018-11-10T12:23:49.176Z,88.10
2018-11-10T12:25:57.807Z,87.30
2018-11-10T12:28:05.973Z,87.10
2018-11-10T12:30:16.676Z,86.20
2018-11-10T12:32:24.337Z,86.80
2018-11-10T12:34:33.798Z,86.20
2018-11-10T12:36:40.247Z,85.20
2018-11-10T12:38:47.476Z,84.70
2018-11-10T12:40:55.322Z,85.20
2018-11-10T12:43:02.185Z,86.50
2018-11-10T12:45:19.391Z,88.10
2018-11-10T12:47:27.039Z,88.40
2018-11-10T12:49:35.295Z,88.00
2018-11-10T12:51:42.587Z,88.80
2018-11-10T12:53:47.937Z,87.60
2018-11-10T12:55:54.261Z,86.90
2018-11-10T12:58:00.822Z,87.60
2018-11-10T13:00:38.801Z,88.90
2018-11-10T13:02:47.346Z,89.20
2018-11-10T13:04:55.282Z,89.40
2018-11-10T13:07:00.980Z,89.00
2018-11-10T13:09:14.507Z,88.90
2018-11-10T13:11:19.153Z,89.70
2018-11-10T13:14:00.413Z,90.00
2018-11-10T13:16:15.391Z,89.40
2018-11-10T13:18:22.552Z,89.20
2018-11-10T13:20:33.243Z,89.70
2018-11-10T13:22:38.660Z,89.60
2018-11-10T13:24:45.832Z,89.70
2018-11-10T13:26:51.572Z,89.90
2018-11-10T13:28:57.566Z,89.90
2018-11-10T13:31:02.754Z,90.30
2018-11-10T13:33:09.371Z,90.30
2018-11-10T13:35:15.573Z,90.00
2018-11-10T13:37:22.433Z,89.80
2018-11-10T13:39:27.414Z,89.00
2018-11-10T13:41:31.822Z,88.90
2018-11-10T13:43:36.659Z,89.30
2018-11-10T13:45:41.596Z,89.40
2018-11-10T13:47:50.527Z,89.30
2018-11-10T13:50:06.798Z,89.70
2018-11-10T13:52:14.787Z,89.30
2018-11-10T13:54:27.220Z,89.60
2018-11-10T13:56:37.612Z,89.10
2018-11-10T13:58:43.355Z,90.40
2018-11-10T14:00:56.726Z,90.20
2018-11-10T14:03:04.270Z,90.40
2018-11-10T14:05:09.441Z,89.70
2018-11-10T14:07:17.951Z,89.20
2018-11-10T14:09:23.454Z,89.00
2018-11-10T14:11:33.686Z,88.80
2018-11-10T14:13:44.780Z,88.50
2018-11-10T14:21:22.260Z,88.20
2018-11-10T14:23:28.659Z,88.50
2018-11-10T14:25:36.939Z,89.40
2018-11-10T14:27:44.744Z,88.90
2018-11-10T14:29:53.711Z,89.40
2018-11-10T14:31:58.622Z,90.00
2018-11-10T14:34:13.241Z,90.00
2018-11-10T14:36:29.105Z,90.30
2018-11-10T14:38:44.715Z,90.20
2018-11-10T14:43:07.982Z,90.80
2018-11-10T14:48:15.244Z,91.10
2018-11-10T14:50:26.149Z,90.90
2018-11-10T14:52:37.166Z,91.00
2018-11-10T14:54:50.332Z,90.90
2018-11-10T14:56:59.736Z,90.90
2018-11-10T14:59:07.133Z,91.00
2018-11-10T15:01:19.909Z,91.10
2018-11-10T15:03:38.585Z,91.20
2018-11-10T15:05:46.971Z,91.50
2018-11-10T15:08:01.652Z,91.60
2018-11-10T15:10:17.832Z,91.70
2018-11-10T15:12:25.255Z,91.70
2018-11-10T15:14:37.582Z,91.80
2018-11-10T15:19:12.777Z,92.20
2018-11-10T15:21:27.587Z,92.30
2018-11-10T15:24:03.792Z,92.40
2018-11-10T15:26:30.802Z,92.50
2018-11-10T15:28:55.247Z,92.70
2018-11-10T15:31:20.133Z,92.70
2018-11-10T15:33:40.398Z,92.80
2018-11-10T15:35:51.829Z,92.80
2018-11-10T15:38:14.361Z,92.90
2018-11-10T15:40:25.711Z,93.00
2018-11-10T15:42:37.048Z,92.90
2018-11-10T15:44:45.840Z,93.00
2018-11-10T15:46:59.810Z,93.10
2018-11-10T15:49:12.288Z,93.10
2018-11-10T15:51:22.180Z,93.20
2018-11-10T15:53:34.810Z,93.10
2018-11-10T15:55:47.878Z,93.10
2018-11-10T15:57:56.704Z,93.20
2018-11-10T16:00:05.356Z,92.90
2018-11-10T16:02:19.837Z,93.00
2018-11-10T16:06:03.759Z,93.00
2018-11-10T16:08:13.327Z,93.00
2018-11-10T16:10:26.967Z,92.80
2018-11-10T16:12:41.053Z,92.80
2018-11-10T16:14:59.295Z,92.80
2018-11-10T16:17:14.415Z,92.70
2018-11-10T16:19:22.070Z,92.70
2018-11-10T16:21:37.320Z,92.70
2018-11-10T16:23:44.515Z,92.60
2018-11-10T16:25:53.998Z,92.70
2018-11-10T16:28:04.905Z,92.70
2018-11-10T16:30:18.329Z,92.70
2018-11-10T16:32:28.560Z,92.70
2018-11-10T16:34:40.252Z,92.80
2018-11-10T16:36:52.774Z,92.70
2018-11-10T16:40:38.448Z,92.90
2018-11-10T16:42:50.699Z,93.10
2018-11-10T16:45:05.193Z,93.30
2018-11-10T16:47:14.269Z,93.30
2018-11-10T16:49:22.360Z,93.50
2018-11-10T16:51:30.283Z,93.70
2018-11-10T16:53:40.719Z,93.60
2018-11-10T16:55:48.266Z,93.70
2018-11-10T16:57:56.782Z,93.60
2018-11-10T17:00:09.004Z,93.60
2018-11-10T17:02:18.929Z,93.60
2018-11-10T17:04:30.695Z,93.50
2018-11-10T17:06:45.317Z,93.60
2018-11-10T17:08:54.358Z,93.60
2018-11-10T17:11:03.676Z,93.60
2018-11-10T17:13:17.251Z,93.70
2018-11-10T17:15:27.433Z,93.70
2018-11-10T17:17:37.500Z,93.70
2018-11-10T17:19:49.392Z,93.50
2018-11-10T17:22:11.503Z,93.50
2018-11-10T17:24:21.732Z,93.70
2018-11-10T17:26:31.040Z,93.30
2018-11-10T17:28:40.332Z,93.20
2018-11-10T17:30:53.125Z,93.20
2018-11-10T17:33:03.046Z,93.00
2018-11-10T17:35:17.673Z,93.10
2018-11-10T17:37:29.513Z,93.00
2018-11-10T17:39:52.090Z,93.00
2018-11-10T17:42:09.325Z,92.80
2018-11-10T17:44:18.764Z,92.70
2018-11-10T17:46:32.393Z,92.70
2018-11-10T17:48:45.100Z,92.50
2018-11-10T17:50:52.085Z,92.30
2018-11-10T17:53:00.314Z,92.40
2018-11-10T17:55:15.369Z,92.40
2018-11-10T17:57:23.284Z,92.40
2018-11-10T17:59:32.508Z,92.40
2018-11-10T18:01:46.886Z,92.40
2018-11-10T18:03:56.762Z,92.50
2018-11-10T18:06:10.542Z,92.90
2018-11-10T18:08:19.156Z,92.70
2018-11-10T18:10:34.180Z,92.60
2018-11-10T18:12:46.971Z,92.50
2018-11-10T18:14:55.739Z,92.40
2018-11-10T18:17:05.756Z,92.50
2018-11-10T18:19:14.948Z,92.40
2018-11-10T18:21:30.292Z,92.70
2018-11-10T18:26:06.604Z,92.80
2018-11-10T18:28:18.987Z,93.70
2018-11-10T18:30:45.338Z,94.00
2018-11-10T18:32:56.457Z,94.00
2018-11-10T18:38:20.064Z,94.00
2018-11-10T18:40:33.478Z,94.10
2018-11-10T18:42:43.327Z,93.60
2018-11-10T18:47:17.468Z,93.60
2018-11-10T18:49:30.461Z,93.20
2018-11-10T18:51:40.342Z,93.40
2018-11-10T18:54:00.255Z,93.30
2018-11-10T18:56:14.110Z,93.20
2018-11-10T19:04:05.268Z,93.60
2018-11-10T19:06:13.886Z,93.60
2018-11-10T19:08:28.737Z,93.70
2018-11-10T19:10:39.988Z,93.70
2018-11-10T19:13:00.382Z,93.70
2018-11-10T19:15:20.852Z,94.20
2018-11-10T19:17:31.319Z,94.20
2018-11-10T19:19:44.901Z,94.30
2018-11-10T19:22:05.172Z,94.10
2018-11-10T19:24:10.719Z,94.10
2018-11-10T19:26:24.686Z,94.10
2018-11-10T19:28:33.557Z,94.00
2018-11-10T19:30:39.561Z,94.20
2018-11-10T19:32:45.751Z,94.30
2018-11-10T19:34:55.833Z,94.40
2018-11-10T19:37:05.738Z,95.10
2018-11-10T19:39:13.427Z,95.50
2018-11-10T19:41:25.536Z,95.50
2018-11-10T19:43:29.738Z,95.70
2018-11-10T19:45:36.712Z,95.60
2018-11-10T19:47:45.617Z,95.40
2018-11-10T19:49:51.655Z,95.40
2018-11-10T19:52:05.483Z,95.20
2018-11-10T19:54:17.385Z,95.30
2018-11-10T19:56:27.457Z,95.70
2018-11-10T19:58:32.473Z,96.10
2018-11-10T20:00:42.161Z,96.50
2018-11-10T20:02:48.422Z,97.00
2018-11-10T20:04:55.792Z,97.30
2018-11-10T20:07:02.386Z,97.40
2018-11-10T20:09:13.305Z,97.60
2018-11-10T20:11:20.271Z,97.70
2018-11-10T20:13:29.328Z,97.80
2018-11-10T20:15:34.594Z,97.80
2018-11-10T20:17:41.948Z,97.80
2018-11-10T20:19:47.073Z,98.10
2018-11-10T20:21:53.509Z,98.20
2018-11-10T20:24:05.287Z,98.40
2018-11-10T20:26:09.452Z,98.20
2018-11-10T20:28:16.278Z,98.10
2018-11-10T20:30:33.319Z,98.20
2018-11-10T20:32:38.638Z,98.30
2018-11-10T20:34:45.774Z,98.20
2018-11-10T20:36:51.695Z,98.10
2018-11-10T20:38:58.846Z,98.10
2018-11-10T20:41:13.080Z,98.10
2018-11-10T20:43:21.272Z,98.50
2018-11-10T20:45:27.430Z,98.90
2018-11-10T20:47:31.642Z,99.10
2018-11-10T20:49:39.485Z,99.50
2018-11-10T20:52:22.642Z,99.80
2018-11-10T20:54:27.693Z,99.90
2018-11-10T20:56:34.280Z,99.90
2018-11-10T20:58:40.457Z,99.90
2018-11-10T21:00:44.818Z,99.90
2018-11-10T21:02:50.272Z,99.90
2018-11-10T21:04:55.800Z,99.90
2018-11-10T21:07:06.475Z,99.90
2018-11-10T21:09:16.251Z,99.90
2018-11-10T21:11:23.548Z,99.90
2018-11-10T21:13:32.257Z,99.90
2018-11-10T21:15:38.328Z,99.90
2018-11-10T21:17:45.312Z,99.90
2018-11-10T21:19:50.091Z,99.90
2018-11-10T21:21:58.238Z,99.90
2018-11-10T21:24:07.900Z,99.90
2018-11-10T21:26:19.610Z,99.90
2018-11-10T21:28:30.045Z,99.90
2018-11-10T21:30:40.601Z,99.90
2018-11-10T21:32:46.082Z,99.90
2018-11-10T21:34:54.990Z,99.90
2018-11-10T21:37:01.325Z,99.90
2018-11-10T21:39:09.703Z,99.90
2018-11-10T21:43:30.527Z,99.90
2018-11-10T21:45:54.022Z,99.90
2018-11-10T21:47:59.655Z,99.90
2018-11-10T21:50:17.445Z,99.90
2018-11-10T21:52:26.309Z,99.90
2018-11-10T21:54:33.735Z,99.90
2018-11-10T21:56:38.978Z,99.90
2018-11-10T21:58:48.066Z,99.90
2018-11-10T22:00:55.701Z,99.90
2018-11-10T22:03:04.420Z,99.90
2018-11-10T22:05:15.204Z,99.90
2018-11-10T22:07:23.442Z,99.90
2018-11-10T22:09:34.114Z,99.90
2018-11-10T22:11:42.447Z,99.90
2018-11-10T22:13:48.278Z,99.90
2018-11-10T22:15:55.979Z,99.90
2018-11-10T22:18:08.202Z,99.90
2018-11-10T22:20:17.067Z,99.90
2018-11-10T22:22:24.818Z,99.90
2018-11-10T22:24:33.371Z,99.90
2018-11-10T22:26:39.701Z,99.90
2018-11-10T22:28:47.742Z,99.90
2018-11-10T22:30:55.967Z,99.90
2018-11-10T22:33:06.470Z,99.90
2018-11-10T22:35:11.653Z,99.90
2018-11-10T22:37:18.054Z,99.90
2018-11-10T22:39:22.386Z,99.90
2018-11-10T22:41:29.254Z,99.90
2018-11-10T22:43:41.861Z,99.90
2018-11-10T22:45:46.684Z,99.90
2018-11-10T22:48:00.396Z,99.90
2018-11-10T22:50:10.483Z,99.90
2018-11-10T22:52:18.160Z,99.90
2018-11-10T22:54:31.010Z,99.90
2018-11-10T22:56:36.492Z,99.90
2018-11-10T22:58:42.056Z,99.90
2018-11-10T23:01:13.524Z,99.90
2018-11-10T23:03:19.753Z,99.90
2018-11-10T23:05:27.268Z,99.90
2018-11-10T23:07:34.567Z,99.90
2018-11-10T23:09:46.271Z,99.90
2018-11-10T23:11:51.081Z,99.90
2018-11-10T23:13:55.546Z,99.90
2018-11-10T23:16:06.439Z,99.90
2018-11-10T23:18:14.108Z,99.90
2018-11-10T23:20:25.935Z,99.90
2018-11-10T23:22:33.778Z,99.90
2018-11-10T23:24:38.696Z,99.90
2018-11-10T23:26:44.287Z,99.90
2018-11-10T23:28:50.335Z,99.90
2018-11-10T23:31:04.863Z,99.90
2018-11-10T23:33:13.736Z,99.90
2018-11-10T23:35:24.235Z,99.90
2018-11-10T23:37:35.676Z,99.90
2018-11-10T23:39:41.275Z,99.90
2018-11-10T23:41:47.794Z,99.90
2018-11-10T23:43:52.809Z,99.90
2018-11-10T23:45:58.479Z,99.90
2018-11-10T23:48:05.455Z,99.90
2018-11-10T23:50:12.598Z,99.90
2018-11-10T23:52:21.089Z,99.90
2018-11-10T23:54:26.631Z,99.90
2018-11-10T23:56:31.468Z,99.90
2018-11-10T23:58:38.232Z,99.90
